Iris Ace — ZGBS2 — position and weather

sailwx.info

Track history (hours):
 
Tides and Currents Weather Stations Pressure Air Temp Water Temp Dewpoint Dewpoint Depression Visibility Wind Speed Wind Dir Waves Ship Positions

Iris Ace

Last reported at 2017-Dec-17 11:20 UTC. Time now 2017-Dec-17 19:30 UTC.
Position S 38°02' E 144°55'.

Length 188 m; draft 7.3 m.

Type: Cargo ship. MMSI: 319392000.

Date/timePositionNaut miles runAvg speedWind from/ knotsBaromVisibWave heightAir tempDewpointWater temp
2017-Dec-17 11:20S 38°02' E 144°55'515.4
2017-Dec-17 11:01S 37°57' E 144°55'610.6
2017-Dec-17 10:25S 37°51' E 144°54'2 0.3
2017-Dec-17 03:38S 37°49' E 144°55'0 1.0
2017-Dec-17 03:23S 37°49' E 144°55'2 4.3
2017-Dec-17 02:55S 37°51' E 144°55'410.5
2017-Dec-17 02:30S 37°55' E 144°56'816.3
2017-Dec-17 02:00S 38°04' E 144°55'110 8.6
2017-Dec-16 13:14S 39°04' E 146°53'312.4
2017-Dec-16 12:59S 39°03' E 146°56'1112.5
2017-Dec-16 12:07S 38°60' E 147°09'213.2
2017-Dec-16 12:00S 38°59' E 147°11'3 6.1
2017-Dec-16 11:30S 38°57' E 147°14'2 4.4
2017-Dec-16 11:00S 38°57' E 147°17'816.7
2017-Dec-16 10:30S 38°55' E 147°27'4511.7
2017-Dec-16 06:38S 38°38' E 148°22'412.5
2017-Dec-16 06:21S 38°36' E 148°25'712.3
2017-Dec-16 05:49S 38°32' E 148°32'612.5
2017-Dec-16 05:22S 38°29' E 148°38'612.5
2017-Dec-16 04:54S 38°26' E 148°44'712.5
2017-Dec-16 04:22S 38°22' E 148°51'612.7
2017-Dec-16 03:51S 38°18' E 148°58'616.1
2017-Dec-16 03:29S 38°15' E 149°04'2813.6
2017-Dec-16 01:26S 37°58' E 149°33'512.6
2017-Dec-16 01:00S 37°55' E 149°38'299 9.8
2017-Dec-14 18:27S 33°21' E 152°04'511.9
2017-Dec-14 18:00S 33°17' E 152°08'612.5
2017-Dec-14 17:30S 33°12' E 152°13'612.7
2017-Dec-14 17:00S 33°07' E 152°18'612.7
2017-Dec-14 16:30S 33°02' E 152°23'713.2
2017-Dec-14 16:00S 32°57' E 152°28'1313.1
2017-Dec-14 15:00S 32°47' E 152°38'612.9
2017-Dec-14 14:30S 32°42' E 152°43'612.6
2017-Dec-14 14:00S 32°38' E 152°48'612.6
2017-Dec-14 13:30S 32°33' E 152°53'712.9
2017-Dec-14 12:59S 32°28' E 152°58'714.4
2017-Dec-14 12:30S 32°21' E 153°01'815.6
2017-Dec-14 12:00S 32°14' E 153°04'815.4
2017-Dec-14 11:30S 32°06' E 153°07'815.2
2017-Dec-14 11:00S 31°59' E 153°09'817.0
2017-Dec-14 10:30S 31°51' E 153°12'815.3
2017-Dec-14 10:00S 31°44' E 153°14'6 3.1
2017-Dec-14 08:08S 31°38' E 153°14'1 5.6
2017-Dec-14 08:00S 31°38' E 153°14'12214.0
2017-Dec-13 23:14S 29°40' E 153°53'513.1
2017-Dec-13 22:50S 29°35' E 153°54'6516.3
2017-Dec-13 18:50S 28°30' E 153°56'619.1
2017-Dec-13 18:30S 28°23' E 153°56'918.8
2017-Dec-13 18:00S 28°14' E 153°56'918.6
2017-Dec-13 17:30S 28°05' E 153°56'918.5
2017-Dec-13 17:00S 27°55' E 153°55'917.8
2017-Dec-13 16:31S 27°47' E 153°52'917.5
2017-Dec-13 16:01S 27°39' E 153°49'3417.2
2017-Dec-13 14:04S 27°06' E 153°43'117.6
2017-Dec-13 14:01S 27°05' E 153°43'2416.1
2017-Dec-13 12:30S 26°48' E 153°23'815.4
2017-Dec-13 11:58S 26°44' E 153°15'6 6.8
2017-Dec-13 11:07S 26°48' E 153°11'214.2
2017-Dec-13 11:00S 26°49' E 153°09'714.2
2017-Dec-13 10:31S 26°56' E 153°12'714.9
2017-Dec-13 10:00S 27°03' E 153°16'714.8
2017-Dec-13 09:30S 27°09' E 153°21'815.5
2017-Dec-13 09:00S 27°16' E 153°17'612.9
2017-Dec-13 08:30S 27°20' E 153°12'4 6.9
2017-Dec-13 08:00S 27°23' E 153°10'0 0.0
2017-Dec-13 07:30S 27°23' E 153°10'0 0.0
2017-Dec-13 07:00S 27°23' E 153°10'0 0.0
2017-Dec-13 06:30S 27°23' E 153°10'0 0.0
2017-Dec-13 05:54S 27°23' E 153°10'0 0.0
2017-Dec-13 05:30S 27°23' E 153°10'0 0.0
2017-Dec-13 05:00S 27°23' E 153°10'0 0.0
2017-Dec-13 04:30S 27°23' E 153°10'0 0.0
2017-Dec-13 04:00S 27°23' E 153°10'0 0.0
2017-Dec-13 03:30S 27°23' E 153°10'0 0.0
2017-Dec-13 01:54S 27°23' E 153°10'0 0.4
2017-Dec-13 01:30S 27°23' E 153°10'4 7.4
2017-Dec-13 01:00S 27°19' E 153°12'612.1
2017-Dec-13 00:30S 27°16' E 153°17'815.6
2017-Dec-13 00:00S 27°08' E 153°21'815.4
2017-Dec-12 23:30S 27°02' E 153°16'816.3
2017-Dec-12 23:00S 26°55' E 153°12'  
Track history (hours):
 
Tides and Currents Weather Stations Pressure Air Temp Water Temp Dewpoint Dewpoint Depression Visibility Wind Speed Wind Dir Waves Ship Positions

Iris Ace

Last reported at 2017-Dec-17 11:20 UTC. Time now 2017-Dec-17 19:30 UTC.
Position S 38°02' E 144°55'.

Length 188 m; draft 7.3 m.

Type: Cargo ship. MMSI: 319392000.

Date/timePositionNaut miles runAvg speedWind from/ knotsBaromVisibWave heightAir tempDewpointWater temp
2017-Dec-17 11:20S 38°02' E 144°55'515.4
2017-Dec-17 11:01S 37°57' E 144°55'610.6
2017-Dec-17 10:25S 37°51' E 144°54'2 0.3
2017-Dec-17 03:38S 37°49' E 144°55'0 1.0
2017-Dec-17 03:23S 37°49' E 144°55'2 4.3
2017-Dec-17 02:55S 37°51' E 144°55'410.5
2017-Dec-17 02:30S 37°55' E 144°56'816.3
2017-Dec-17 02:00S 38°04' E 144°55'110 8.6
2017-Dec-16 13:14S 39°04' E 146°53'312.4
2017-Dec-16 12:59S 39°03' E 146°56'1112.5
2017-Dec-16 12:07S 38°60' E 147°09'213.2
2017-Dec-16 12:00S 38°59' E 147°11'3 6.1
2017-Dec-16 11:30S 38°57' E 147°14'2 4.4
2017-Dec-16 11:00S 38°57' E 147°17'816.7
2017-Dec-16 10:30S 38°55' E 147°27'4511.7
2017-Dec-16 06:38S 38°38' E 148°22'412.5
2017-Dec-16 06:21S 38°36' E 148°25'712.3
2017-Dec-16 05:49S 38°32' E 148°32'612.5
2017-Dec-16 05:22S 38°29' E 148°38'612.5
2017-Dec-16 04:54S 38°26' E 148°44'712.5
2017-Dec-16 04:22S 38°22' E 148°51'612.7
2017-Dec-16 03:51S 38°18' E 148°58'616.1
2017-Dec-16 03:29S 38°15' E 149°04'2813.6
2017-Dec-16 01:26S 37°58' E 149°33'512.6
2017-Dec-16 01:00S 37°55' E 149°38'299 9.8
2017-Dec-14 18:27S 33°21' E 152°04'511.9
2017-Dec-14 18:00S 33°17' E 152°08'612.5
2017-Dec-14 17:30S 33°12' E 152°13'612.7
2017-Dec-14 17:00S 33°07' E 152°18'612.7
2017-Dec-14 16:30S 33°02' E 152°23'713.2
2017-Dec-14 16:00S 32°57' E 152°28'1313.1
2017-Dec-14 15:00S 32°47' E 152°38'612.9
2017-Dec-14 14:30S 32°42' E 152°43'612.6
2017-Dec-14 14:00S 32°38' E 152°48'612.6
2017-Dec-14 13:30S 32°33' E 152°53'712.9
2017-Dec-14 12:59S 32°28' E 152°58'714.4
2017-Dec-14 12:30S 32°21' E 153°01'815.6
2017-Dec-14 12:00S 32°14' E 153°04'815.4
2017-Dec-14 11:30S 32°06' E 153°07'815.2
2017-Dec-14 11:00S 31°59' E 153°09'817.0
2017-Dec-14 10:30S 31°51' E 153°12'815.3
2017-Dec-14 10:00S 31°44' E 153°14'6 3.1
2017-Dec-14 08:08S 31°38' E 153°14'1 5.6
2017-Dec-14 08:00S 31°38' E 153°14'12214.0
2017-Dec-13 23:14S 29°40' E 153°53'513.1
2017-Dec-13 22:50S 29°35' E 153°54'6516.3
2017-Dec-13 18:50S 28°30' E 153°56'619.1
2017-Dec-13 18:30S 28°23' E 153°56'918.8
2017-Dec-13 18:00S 28°14' E 153°56'918.6
2017-Dec-13 17:30S 28°05' E 153°56'918.5
2017-Dec-13 17:00S 27°55' E 153°55'917.8
2017-Dec-13 16:31S 27°47' E 153°52'917.5
2017-Dec-13 16:01S 27°39' E 153°49'3417.2
2017-Dec-13 14:04S 27°06' E 153°43'117.6
2017-Dec-13 14:01S 27°05' E 153°43'2416.1
2017-Dec-13 12:30S 26°48' E 153°23'815.4
2017-Dec-13 11:58S 26°44' E 153°15'6 6.8
2017-Dec-13 11:07S 26°48' E 153°11'214.2
2017-Dec-13 11:00S 26°49' E 153°09'714.2
2017-Dec-13 10:31S 26°56' E 153°12'714.9
2017-Dec-13 10:00S 27°03' E 153°16'714.8
2017-Dec-13 09:30S 27°09' E 153°21'815.5
2017-Dec-13 09:00S 27°16' E 153°17'612.9
2017-Dec-13 08:30S 27°20' E 153°12'4 6.9
2017-Dec-13 08:00S 27°23' E 153°10'0 0.0
2017-Dec-13 07:30S 27°23' E 153°10'0 0.0
2017-Dec-13 07:00S 27°23' E 153°10'0 0.0
2017-Dec-13 06:30S 27°23' E 153°10'0 0.0
2017-Dec-13 05:54S 27°23' E 153°10'0 0.0
2017-Dec-13 05:30S 27°23' E 153°10'0 0.0
2017-Dec-13 05:00S 27°23' E 153°10'0 0.0
2017-Dec-13 04:30S 27°23' E 153°10'0 0.0
2017-Dec-13 04:00S 27°23' E 153°10'0 0.0
2017-Dec-13 03:30S 27°23' E 153°10'0 0.0
2017-Dec-13 01:54S 27°23' E 153°10'0 0.4
2017-Dec-13 01:30S 27°23' E 153°10'4 7.4
2017-Dec-13 01:00S 27°19' E 153°12'612.1
2017-Dec-13 00:30S 27°16' E 153°17'815.6
2017-Dec-13 00:00S 27°08' E 153°21'815.4
2017-Dec-12 23:30S 27°02' E 153°16'816.3
2017-Dec-12 23:00S 26°55' E 153°12'  

Dump ship's entire track history